Skip Navigation LinksHome page > Tools > METAR decoder Skip Navigation Links

METAR decoder

Settings

METAR

Chicago O'Hare Intl, Chicago

For information only: do not use for flight planning or navigation.
Latest weather
Observation time Monday, August 29, 2016 5:51 PM CDT
Local time Monday, August 29, 2016 6:30 PM CDT
Flight conditions Visual Meteorological Conditions
Winds
Wind direction North (10°)
Wind speed 3 mph
Visibility 9 mi.
Sky condition
Ceiling 16,000 ft. broken clouds
Cloud layer few clouds 5,000 ft.
Cloud layer few clouds 9,000 ft.
Cloud layer scattered clouds 14,000 ft.
Cloud layer broken clouds 16,000 ft.
Cloud layer overcast 25,000 ft.
Temperature 76°F
Dewpoint 72°F
Altimeter 30.18 in.Hg
Derived measurements
Relative humidity 88%
Density altitude 1823 ft.
Sea-level pressure 30.17 in.Hg
Remarks
System requires maintenance.
Automated weather observing station with precipitation discriminator.
METAR KORD 292251Z 01003KT 9SM FEW050 FEW090 SCT140 BKN160 OVC250 24/22 A3018 RMK AO2 SLP217 T02440222 $

InnerDrive.Weather 4.0.5722.1 Release CLR 4.0.30319.34209
Copyright ©2015 Inner Drive Technology. All rights reserved. Portions Copyright ©1986-2015 David Braverman.

Find weather

Site navigation


Skip Navigation Links

Place info

Page info

PayPal - The safer, easier way to pay online!

Return home.

Copyright ©2016 Inner Drive Technology. Purveyors of fine, hand-crafted computer software. Page printed 2016-08-29T23:30:46 UTC.